sensor_id;sensor_type;location;lat;lon;timestamp;pressure;altitude;pressure_sealevel;temperature;humidity
5917;BME280;2984;42.656;23.300;2022-09-09T08:19:33;94610.59;;;26.54;40.39
5917;BME280;2984;42.656;23.300;2022-09-09T08:25:18;94662.63;;;27.12;41.00
5917;BME280;2984;42.656;23.300;2022-09-09T08:27:47;94556.19;;;26.53;40.56
5917;BME280;2984;42.656;23.300;2022-09-09T08:30:16;94659.22;;;26.56;41.42
5917;BME280;2984;42.656;23.300;2022-09-09T08:32:45;94631.84;;;26.49;41.96
5917;BME280;2984;42.656;23.300;2022-09-09T08:35:16;94567.47;;;26.15;41.75
5917;BME280;2984;42.656;23.300;2022-09-09T08:37:47;94689.13;;;27.02;41.77
5917;BME280;2984;42.656;23.300;2022-09-09T08:40:22;94626.81;;;26.47;41.89
5917;BME280;2984;42.656;23.300;2022-09-09T08:42:56;94685.91;;;26.87;40.61
5917;BME280;2984;42.656;23.300;2022-09-09T08:48:11;94669.66;;;26.47;42.74
5917;BME280;2984;42.656;23.300;2022-09-09T08:50:45;94629.94;;;26.39;40.42
5917;BME280;2984;42.656;23.300;2022-09-09T08:53:28;94644.38;;;26.66;41.83
5917;BME280;2984;42.656;23.300;2022-09-09T08:56:02;94678.91;;;26.78;40.51
5917;BME280;2984;42.656;23.300;2022-09-09T08:58:43;94615.75;;;26.52;40.61
5917;BME280;2984;42.656;23.300;2022-09-09T09:04:40;94639.75;;;27.23;39.30
5917;BME280;2984;42.656;23.300;2022-09-09T09:07:23;94658.56;;;27.26;39.70
5917;BME280;2984;42.656;23.300;2022-09-09T09:09:59;94657.66;;;27.09;40.17
5917;BME280;2984;42.656;23.300;2022-09-09T09:12:35;94565.00;;;26.51;39.65
5917;BME280;2984;42.656;23.300;2022-09-09T09:15:11;94667.38;;;27.47;38.82
5917;BME280;2984;42.656;23.300;2022-09-09T09:17:43;94611.38;;;26.78;39.02
5917;BME280;2984;42.656;23.300;2022-09-09T09:20:13;94660.22;;;26.71;40.88
5917;BME280;2984;42.656;23.300;2022-09-09T09:22:48;94635.28;;;26.04;40.84
5917;BME280;2984;42.656;23.300;2022-09-09T09:25:20;94634.19;;;26.67;41.28
5917;BME280;2984;42.656;23.300;2022-09-09T09:27:57;94535.34;;;26.22;40.12
5917;BME280;2984;42.656;23.300;2022-09-09T09:30:35;94670.47;;;27.18;40.33
5917;BME280;2984;42.656;23.300;2022-09-09T09:33:14;94669.56;;;27.46;39.30
5917;BME280;2984;42.656;23.300;2022-09-09T09:35:46;94604.81;;;26.30;40.07
5917;BME280;2984;42.656;23.300;2022-09-09T09:38:21;94646.47;;;25.64;41.99
5917;BME280;2984;42.656;23.300;2022-09-09T09:40:51;94661.97;;;26.62;40.67
5917;BME280;2984;42.656;23.300;2022-09-09T09:43:26;94632.66;;;26.70;40.28
5917;BME280;2984;42.656;23.300;2022-09-09T09:45:56;94615.22;;;26.70;39.55
5917;BME280;2984;42.656;23.300;2022-09-09T09:48:26;94633.19;;;26.77;40.16
5917;BME280;2984;42.656;23.300;2022-09-09T09:50:57;94637.41;;;26.32;39.96
5917;BME280;2984;42.656;23.300;2022-09-09T09:53:32;94562.75;;;26.29;39.42
5917;BME280;2984;42.656;23.300;2022-09-09T09:56:04;94535.53;;;26.15;39.31
5917;BME280;2984;42.656;23.300;2022-09-09T09:58:49;94609.47;;;26.68;39.94
5917;BME280;2984;42.656;23.300;2022-09-09T10:01:22;94619.69;;;27.15;38.91
5917;BME280;2984;42.656;23.300;2022-09-09T10:06:32;94610.75;;;26.50;41.08
5917;BME280;2984;42.656;23.300;2022-09-09T10:09:21;94625.41;;;26.19;40.94
5917;BME280;2984;42.656;23.300;2022-09-09T10:11:56;94626.50;;;26.06;40.76
5917;BME280;2984;42.656;23.300;2022-09-09T10:14:33;94660.22;;;26.46;40.26
5917;BME280;2984;42.656;23.300;2022-09-09T10:17:15;94541.38;;;25.89;40.19
5917;BME280;2984;42.656;23.300;2022-09-09T10:19:57;94602.19;;;26.69;40.14
5917;BME280;2984;42.656;23.300;2022-09-09T10:22:32;94578.59;;;26.57;40.69
5917;BME280;2984;42.656;23.300;2022-09-09T10:25:36;94659.00;;;27.35;38.80
5917;BME280;2984;42.656;23.300;2022-09-09T10:28:34;94651.16;;;27.75;40.22
5917;BME280;2984;42.656;23.300;2022-09-09T10:31:16;94609.63;;;27.55;39.50
5917;BME280;2984;42.656;23.300;2022-09-09T10:33:51;94605.41;;;27.73;38.07
5917;BME280;2984;42.656;23.300;2022-09-09T10:36:24;94642.38;;;27.77;38.89
5917;BME280;2984;42.656;23.300;2022-09-09T10:38:58;94637.72;;;27.86;38.84
5917;BME280;2984;42.656;23.300;2022-09-09T10:57:37;94641.75;;;27.51;38.57
5917;BME280;2984;42.656;23.300;2022-09-09T14:24:11;94397.13;;;25.35;48.84
5917;BME280;2984;42.656;23.300;2022-09-09T14:26:47;94370.66;;;24.98;49.08
5917;BME280;2984;42.656;23.300;2022-09-09T14:29:15;94315.06;;;24.64;49.82
5917;BME280;2984;42.656;23.300;2022-09-09T14:31:56;94333.72;;;24.71;48.46
5917;BME280;2984;42.656;23.300;2022-09-09T14:34:26;94460.22;;;25.62;48.21
5917;BME280;2984;42.656;23.300;2022-09-09T14:36:59;94409.50;;;25.34;47.98
5917;BME280;2984;42.656;23.300;2022-09-09T14:39:30;94377.59;;;25.09;48.11
5917;BME280;2984;42.656;23.300;2022-09-09T14:41:59;94364.16;;;24.97;48.11
5917;BME280;2984;42.656;23.300;2022-09-09T14:46:04;94389.97;;;25.32;47.61
5917;BME280;2984;42.656;23.300;2022-09-09T14:47:53;94418.75;;;25.40;47.77
5917;BME280;2984;42.656;23.300;2022-09-09T14:53:43;94416.22;;;25.78;47.22
5917;BME280;2984;42.656;23.300;2022-09-09T14:56:17;94374.84;;;25.55;46.58
5917;BME280;2984;42.656;23.300;2022-09-09T14:58:47;94428.91;;;26.14;46.98
5917;BME280;2984;42.656;23.300;2022-09-09T15:01:18;94423.09;;;26.14;46.67
5917;BME280;2984;42.656;23.300;2022-09-09T15:03:49;94463.91;;;26.55;45.94
5917;BME280;2984;42.656;23.300;2022-09-09T15:06:20;94464.91;;;26.92;45.82
5917;BME280;2984;42.656;23.300;2022-09-09T15:08:51;94455.44;;;26.93;45.80
5917;BME280;2984;42.656;23.300;2022-09-09T15:11:25;94468.66;;;26.88;46.76
5917;BME280;2984;42.656;23.300;2022-09-09T15:13:56;94456.06;;;26.96;45.31
5917;BME280;2984;42.656;23.300;2022-09-09T15:16:26;94471.59;;;27.09;44.92
5917;BME280;2984;42.656;23.300;2022-09-09T15:18:57;94409.13;;;26.43;45.97
5917;BME280;2984;42.656;23.300;2022-09-09T15:21:27;94458.63;;;26.62;46.09
5917;BME280;2984;42.656;23.300;2022-09-09T15:23:57;94464.31;;;27.10;45.87
5917;BME280;2984;42.656;23.300;2022-09-09T15:26:30;94417.38;;;27.01;45.28
5917;BME280;2984;42.656;23.300;2022-09-09T15:29:06;94378.00;;;26.83;45.56
5917;BME280;2984;42.656;23.300;2022-09-09T15:31:36;94429.09;;;26.76;47.13
5917;BME280;2984;42.656;23.300;2022-09-09T15:34:06;94440.63;;;26.35;48.99
5917;BME280;2984;42.656;23.300;2022-09-09T15:36:36;94443.28;;;26.18;49.55
5917;BME280;2984;42.656;23.300;2022-09-09T15:39:07;94439.06;;;25.90;50.95
5917;BME280;2984;42.656;23.300;2022-09-09T15:41:40;94382.13;;;25.54;50.90
5917;BME280;2984;42.656;23.300;2022-09-09T15:44:10;94444.00;;;26.18;51.84
5917;BME280;2984;42.656;23.300;2022-09-09T15:46:41;94422.44;;;25.89;51.96
5917;BME280;2984;42.656;23.300;2022-09-09T15:49:12;94370.00;;;25.72;49.98
5917;BME280;2984;42.656;23.300;2022-09-09T15:51:42;94364.41;;;25.89;50.72
5917;BME280;2984;42.656;23.300;2022-09-09T15:54:13;94435.25;;;26.43;50.84
5917;BME280;2984;42.656;23.300;2022-09-09T15:56:56;94369.09;;;25.53;51.34
5917;BME280;2984;42.656;23.300;2022-09-09T15:59:31;94363.09;;;25.59;50.23
5917;BME280;2984;42.656;23.300;2022-09-09T16:02:00;94426.31;;;26.27;50.12
5917;BME280;2984;42.656;23.300;2022-09-09T16:04:30;94386.94;;;25.63;49.66
5917;BME280;2984;42.656;23.300;2022-09-09T16:07:01;94379.06;;;25.08;51.89
5917;BME280;2984;42.656;23.300;2022-09-09T16:09:31;94374.47;;;25.17;50.88
5917;BME280;2984;42.656;23.300;2022-09-09T16:12:05;94432.88;;;25.28;52.55
5917;BME280;2984;42.656;23.300;2022-09-09T16:16:27;94290.28;;;24.71;50.73
5917;BME280;2984;42.656;23.300;2022-09-09T16:18:18;94362.31;;;25.37;49.68
5917;BME280;2984;42.656;23.300;2022-09-09T16:20:53;94456.59;;;25.34;52.17
5917;BME280;2984;42.656;23.300;2022-09-09T16:23:22;94434.44;;;24.96;52.50
5917;BME280;2984;42.656;23.300;2022-09-09T16:25:53;94347.69;;;23.74;53.23
5917;BME280;2984;42.656;23.300;2022-09-09T16:28:25;94337.03;;;23.31;53.72
5917;BME280;2984;42.656;23.300;2022-09-09T16:30:55;94392.91;;;23.55;55.13
5917;BME280;2984;42.656;23.300;2022-09-09T16:33:24;94347.88;;;23.31;54.85
5917;BME280;2984;42.656;23.300;2022-09-09T16:35:53;94375.69;;;23.14;55.54
5917;BME280;2984;42.656;23.300;2022-09-09T16:38:22;94360.34;;;23.23;55.40
5917;BME280;2984;42.656;23.300;2022-09-09T16:40:51;94457.34;;;24.17;54.81
5917;BME280;2984;42.656;23.300;2022-09-09T16:43:29;94352.94;;;23.65;53.86
5917;BME280;2984;42.656;23.300;2022-09-09T16:45:58;94329.31;;;23.55;53.61
5917;BME280;2984;42.656;23.300;2022-09-09T16:48:31;94313.84;;;23.35;54.42
5917;BME280;2984;42.656;23.300;2022-09-09T16:51:04;94447.41;;;24.08;55.04
5917;BME280;2984;42.656;23.300;2022-09-09T16:53:33;94438.72;;;23.77;56.01
5917;BME280;2984;42.656;23.300;2022-09-09T16:56:05;94369.06;;;23.54;55.17
5917;BME280;2984;42.656;23.300;2022-09-09T16:58:37;94384.75;;;23.96;54.37
5917;BME280;2984;42.656;23.300;2022-09-09T17:01:07;94315.34;;;23.32;54.67
5917;BME280;2984;42.656;23.300;2022-09-09T17:03:36;94370.91;;;23.70;54.35
5917;BME280;2984;42.656;23.300;2022-09-09T17:06:09;94365.13;;;24.01;54.90
5917;BME280;2984;42.656;23.300;2022-09-09T17:08:38;94378.69;;;24.08;54.82
5917;BME280;2984;42.656;23.300;2022-09-09T17:11:11;94371.69;;;24.59;51.11
5917;BME280;2984;42.656;23.300;2022-09-09T17:13:45;94367.41;;;24.83;50.46
5917;BME280;2984;42.656;23.300;2022-09-09T17:16:16;94401.53;;;25.34;49.89
5917;BME280;2984;42.656;23.300;2022-09-09T17:18:47;94425.44;;;25.60;49.67
5917;BME280;2984;42.656;23.300;2022-09-09T17:21:54;94449.50;;;25.81;49.18
5917;BME280;2984;42.656;23.300;2022-09-09T17:24:44;94362.66;;;25.25;49.31
5917;BME280;2984;42.656;23.300;2022-09-09T17:27:13;94378.78;;;25.18;49.03
5917;BME280;2984;42.656;23.300;2022-09-09T17:30:02;94460.75;;;25.41;50.22
5917;BME280;2984;42.656;23.300;2022-09-09T17:32:37;94344.22;;;24.29;51.95
5917;BME280;2984;42.656;23.300;2022-09-09T17:35:08;94454.66;;;24.40;54.70
5917;BME280;2984;42.656;23.300;2022-09-09T17:37:36;94374.69;;;23.27;55.38
5917;BME280;2984;42.656;23.300;2022-09-09T17:40:25;94477.69;;;24.46;53.53
5917;BME280;2984;42.656;23.300;2022-09-09T17:43:25;94410.16;;;23.92;54.71
5917;BME280;2984;42.656;23.300;2022-09-09T17:46:05;94468.28;;;23.43;56.86
5917;BME280;2984;42.656;23.300;2022-09-09T17:48:34;94486.03;;;23.22;57.46
5917;BME280;2984;42.656;23.300;2022-09-09T17:51:04;94413.72;;;22.46;58.03
5917;BME280;2984;42.656;23.300;2022-09-09T17:53:36;94449.78;;;22.47;59.71
5917;BME280;2984;42.656;23.300;2022-09-09T17:56:08;94345.69;;;21.71;59.52
5917;BME280;2984;42.656;23.300;2022-09-09T17:58:38;94405.78;;;22.02;59.87
5917;BME280;2984;42.656;23.300;2022-09-09T18:01:12;94458.16;;;22.63;59.07
5917;BME280;2984;42.656;23.300;2022-09-09T18:03:42;94480.34;;;23.16;57.38
5917;BME280;2984;42.656;23.300;2022-09-09T18:06:14;94497.81;;;23.49;58.08
5917;BME280;2984;42.656;23.300;2022-09-09T18:08:47;94335.00;;;22.11;58.88
5917;BME280;2984;42.656;23.300;2022-09-09T18:11:18;94422.81;;;22.20;59.53
5917;BME280;2984;42.656;23.300;2022-09-09T18:13:48;94444.03;;;22.00;60.99
5917;BME280;2984;42.656;23.300;2022-09-09T18:16:24;94343.91;;;20.90;61.91
5917;BME280;2984;42.656;23.300;2022-09-09T18:18:54;94382.66;;;20.99;63.13
5917;BME280;2984;42.656;23.300;2022-09-09T18:21:24;94435.75;;;21.12;64.11
5917;BME280;2984;42.656;23.300;2022-09-09T18:23:58;94427.28;;;20.96;64.72
5917;BME280;2984;42.656;23.300;2022-09-09T18:26:28;94473.50;;;21.49;64.21
5917;BME280;2984;42.656;23.300;2022-09-09T18:28:59;94448.00;;;21.72;62.75
5917;BME280;2984;42.656;23.300;2022-09-09T18:31:32;94531.72;;;22.19;63.28
5917;BME280;2984;42.656;23.300;2022-09-09T18:34:04;94440.50;;;21.40;63.27
5917;BME280;2984;42.656;23.300;2022-09-09T18:36:37;94414.72;;;21.28;63.98
5917;BME280;2984;42.656;23.300;2022-09-09T18:39:08;94409.22;;;21.63;61.90
5917;BME280;2984;42.656;23.300;2022-09-09T18:41:44;94550.38;;;22.74;61.54
5917;BME280;2984;42.656;23.300;2022-09-09T18:44:16;94516.09;;;22.51;62.64
5917;BME280;2984;42.656;23.300;2022-09-09T18:46:49;94556.28;;;22.65;62.38
5917;BME280;2984;42.656;23.300;2022-09-09T18:49:19;94552.22;;;22.48;63.12
5917;BME280;2984;42.656;23.300;2022-09-09T18:51:49;94494.41;;;22.05;62.96
5917;BME280;2984;42.656;23.300;2022-09-09T18:54:38;94482.66;;;22.19;61.99
5917;BME280;2984;42.656;23.300;2022-09-09T18:57:10;94465.31;;;21.72;63.28
5917;BME280;2984;42.656;23.300;2022-09-09T19:00:06;94544.41;;;22.41;62.86
5917;BME280;2984;42.656;23.300;2022-09-09T19:02:39;94510.63;;;22.31;62.50
5917;BME280;2984;42.656;23.300;2022-09-09T19:08:24;94442.13;;;21.80;63.06
5917;BME280;2984;42.656;23.300;2022-09-09T19:10:53;94529.84;;;22.00;64.67
5917;BME280;2984;42.656;23.300;2022-09-09T19:13:22;94406.16;;;21.22;63.27
5917;BME280;2984;42.656;23.300;2022-09-09T19:15:51;94390.38;;;21.15;64.56
5917;BME280;2984;42.656;23.300;2022-09-09T19:18:23;94501.81;;;21.90;64.24
5917;BME280;2984;42.656;23.300;2022-09-09T19:20:52;94416.75;;;21.38;64.49
5917;BME280;2984;42.656;23.300;2022-09-09T19:23:21;94452.53;;;21.57;64.72
5917;BME280;2984;42.656;23.300;2022-09-09T19:25:55;94520.38;;;22.05;64.96
5917;BME280;2984;42.656;23.300;2022-09-09T19:28:30;94434.72;;;21.40;64.62
5917;BME280;2984;42.656;23.300;2022-09-09T19:31:02;94392.38;;;21.31;64.45
5917;BME280;2984;42.656;23.300;2022-09-09T19:33:34;94448.50;;;21.87;63.39
5917;BME280;2984;42.656;23.300;2022-09-09T19:36:06;94449.16;;;21.91;64.63
5917;BME280;2984;42.656;23.300;2022-09-09T19:38:35;94398.88;;;21.29;64.59
5917;BME280;2984;42.656;23.300;2022-09-09T19:41:07;94383.06;;;21.77;60.81
5917;BME280;2984;42.656;23.300;2022-09-09T19:43:36;94386.69;;;22.25;59.23
5917;BME280;2984;42.656;23.300;2022-09-09T19:46:07;94424.13;;;22.70;59.13
5917;BME280;2984;42.656;23.300;2022-09-09T19:48:40;94443.75;;;22.63;62.22
5917;BME280;2984;42.656;23.300;2022-09-09T19:51:11;94339.56;;;21.93;62.38
5917;BME280;2984;42.656;23.300;2022-09-09T19:53:42;94400.13;;;21.93;62.62
5917;BME280;2984;42.656;23.300;2022-09-09T19:56:13;94457.78;;;21.93;64.68
5917;BME280;2984;42.656;23.300;2022-09-09T19:58:44;94335.09;;;21.04;65.02
5917;BME280;2984;42.656;23.300;2022-09-09T20:01:15;94392.22;;;21.41;65.58
5917;BME280;2984;42.656;23.300;2022-09-09T20:03:48;94477.38;;;21.85;66.42
5917;BME280;2984;42.656;23.300;2022-09-09T20:06:20;94404.84;;;21.09;66.93
5917;BME280;2984;42.656;23.300;2022-09-09T20:08:52;94414.81;;;21.20;66.97
5917;BME280;2984;42.656;23.300;2022-09-09T20:11:21;94373.28;;;20.99;66.66
5917;BME280;2984;42.656;23.300;2022-09-09T20:13:50;94451.56;;;21.17;68.90
5917;BME280;2984;42.656;23.300;2022-09-09T20:26:10;94321.81;;;21.77;60.79
5917;BME280;2984;42.656;23.300;2022-09-09T20:28:40;94381.31;;;22.44;59.38
5917;BME280;2984;42.656;23.300;2022-09-09T20:31:11;94322.31;;;22.34;58.13
5917;BME280;2984;42.656;23.300;2022-09-09T20:33:42;94378.09;;;23.01;57.41
5917;BME280;2984;42.656;23.300;2022-09-09T20:36:12;94475.59;;;23.77;56.77
5917;BME280;2984;42.656;23.300;2022-09-09T20:38:42;94394.78;;;23.33;56.55
5917;BME280;2984;42.656;23.300;2022-09-09T20:41:15;94339.41;;;22.86;58.25
5917;BME280;2984;42.656;23.300;2022-09-09T20:43:47;94434.09;;;23.18;60.26
5917;BME280;2984;42.656;23.300;2022-09-09T20:46:17;94362.44;;;22.08;62.86
5917;BME280;2984;42.656;23.300;2022-09-09T20:48:47;94367.03;;;21.41;65.83
5917;BME280;2984;42.656;23.300;2022-09-09T20:51:16;94397.94;;;20.83;68.93
5917;BME280;2984;42.656;23.300;2022-09-09T20:53:46;94385.16;;;21.32;64.57
5917;BME280;2984;42.656;23.300;2022-09-09T20:56:18;94451.25;;;21.97;64.36
5917;BME280;2984;42.656;23.300;2022-09-09T20:58:47;94430.41;;;21.92;65.43
5917;BME280;2984;42.656;23.300;2022-09-09T21:01:17;94352.81;;;21.27;65.13
5917;BME280;2984;42.656;23.300;2022-09-09T21:03:47;94323.56;;;21.04;65.75
5917;BME280;2984;42.656;23.300;2022-09-09T21:06:16;94411.72;;;21.36;66.77
5917;BME280;2984;42.656;23.300;2022-09-09T21:08:46;94390.28;;;21.23;66.60
5917;BME280;2984;42.656;23.300;2022-09-09T21:11:18;94337.50;;;20.81;66.69
5917;BME280;2984;42.656;23.300;2022-09-09T21:13:48;94455.75;;;21.28;68.31
5917;BME280;2984;42.656;23.300;2022-09-09T21:16:18;94452.50;;;21.59;65.49
5917;BME280;2984;42.656;23.300;2022-09-09T21:18:48;94488.16;;;22.40;62.38
5917;BME280;2984;42.656;23.300;2022-09-09T21:21:20;94450.06;;;22.29;63.58
5917;BME280;2984;42.656;23.300;2022-09-09T21:23:52;94403.59;;;21.53;65.74
5917;BME280;2984;42.656;23.300;2022-09-09T21:26:24;94361.78;;;20.97;66.36
5917;BME280;2984;42.656;23.300;2022-09-09T21:28:53;94338.09;;;20.92;65.93
5917;BME280;2984;42.656;23.300;2022-09-09T21:36:26;94484.53;;;22.39;62.39
5917;BME280;2984;42.656;23.300;2022-09-09T21:38:27;94407.69;;;21.70;64.17
5917;BME280;2984;42.656;23.300;2022-09-09T21:40:56;94465.31;;;22.23;62.12
5917;BME280;2984;42.656;23.300;2022-09-09T21:43:27;94459.69;;;22.58;60.49
5917;BME280;2984;42.656;23.300;2022-09-09T21:45:56;94394.41;;;22.37;59.95
5917;BME280;2984;42.656;23.300;2022-09-09T21:48:28;94363.63;;;22.23;59.28
5917;BME280;2984;42.656;23.300;2022-09-09T21:51:01;94424.28;;;22.62;60.39
5917;BME280;2984;42.656;23.300;2022-09-09T21:53:31;94487.00;;;22.65;62.20
5917;BME280;2984;42.656;23.300;2022-09-09T21:56:00;94503.44;;;22.28;64.14
5917;BME280;2984;42.656;23.300;2022-09-09T21:58:34;94448.31;;;21.48;65.75
5917;BME280;2984;42.656;23.300;2022-09-09T22:01:08;94355.94;;;20.41;67.36
5917;BME280;2984;42.656;23.300;2022-09-09T22:03:38;94484.59;;;21.26;67.54
5917;BME280;2984;42.656;23.300;2022-09-09T22:09:59;94419.09;;;19.56;72.88
5917;BME280;2984;42.656;23.300;2022-09-09T22:12:28;94323.63;;;19.47;70.48
5917;BME280;2984;42.656;23.300;2022-09-09T22:14:59;94410.88;;;20.03;70.62
5917;BME280;2984;42.656;23.300;2022-09-09T22:17:28;94325.38;;;18.91;72.00
5917;BME280;2984;42.656;23.300;2022-09-09T22:19:57;94472.13;;;19.81;73.74
5917;BME280;2984;42.656;23.300;2022-09-09T22:22:26;94368.13;;;19.54;71.84
5917;BME280;2984;42.656;23.300;2022-09-09T22:24:55;94429.00;;;20.73;67.75
5917;BME280;2984;42.656;23.300;2022-09-09T22:27:25;94313.38;;;20.54;65.13
5917;BME280;2984;42.656;23.300;2022-09-09T22:29:54;94477.16;;;22.01;63.61
5917;BME280;2984;42.656;23.300;2022-09-09T22:32:25;94471.03;;;21.13;67.29
5917;BME280;2984;42.656;23.300;2022-09-09T22:34:54;94465.47;;;20.92;67.92
5917;BME280;2984;42.656;23.300;2022-09-09T22:37:23;94330.84;;;20.36;66.26
5917;BME280;2984;42.656;23.300;2022-09-09T22:39:52;94373.81;;;21.15;64.21
5917;BME280;2984;42.656;23.300;2022-09-09T22:42:21;94423.75;;;21.55;64.18
5917;BME280;2984;42.656;23.300;2022-09-09T22:44:49;94378.94;;;21.64;62.22
5917;BME280;2984;42.656;23.300;2022-09-09T22:47:18;94470.66;;;22.03;63.88
5917;BME280;2984;42.656;23.300;2022-09-09T22:49:51;94461.63;;;21.16;67.70
5917;BME280;2984;42.656;23.300;2022-09-09T22:52:21;94334.84;;;20.63;65.08
5917;BME280;2984;42.656;23.300;2022-09-09T22:54:50;94327.75;;;20.52;66.24
5917;BME280;2984;42.656;23.300;2022-09-09T22:57:19;94375.66;;;20.80;65.94
5917;BME280;2984;42.656;23.300;2022-09-09T22:59:48;94313.50;;;21.03;62.73
5917;BME280;2984;42.656;23.300;2022-09-09T23:02:17;94314.84;;;21.10;62.76
5917;BME280;2984;42.656;23.300;2022-09-09T23:04:49;94354.50;;;20.38;67.12
5917;BME280;2984;42.656;23.300;2022-09-09T23:07:18;94478.69;;;21.37;65.76
5917;BME280;2984;42.656;23.300;2022-09-09T23:09:48;94473.44;;;21.55;65.20
5917;BME280;2984;42.656;23.300;2022-09-09T23:12:16;94360.19;;;20.46;67.20
5917;BME280;2984;42.656;23.300;2022-09-09T23:14:47;94377.97;;;21.31;64.27
5917;BME280;2984;42.656;23.300;2022-09-09T23:17:16;94423.75;;;21.55;64.96
5917;BME280;2984;42.656;23.300;2022-09-09T23:19:46;94358.69;;;21.17;64.18
5917;BME280;2984;42.656;23.300;2022-09-09T23:22:24;94301.38;;;20.94;64.42
5917;BME280;2984;42.656;23.300;2022-09-09T23:24:55;94445.97;;;20.99;68.47
5917;BME280;2984;42.656;23.300;2022-09-09T23:27:25;94305.97;;;20.00;68.90
5917;BME280;2984;42.656;23.300;2022-09-09T23:29:54;94345.88;;;20.38;68.36
5917;BME280;2984;42.656;23.300;2022-09-09T23:32:23;94280.69;;;20.12;67.11
5917;BME280;2984;42.656;23.300;2022-09-09T23:34:52;94335.03;;;20.47;68.10
5917;BME280;2984;42.656;23.300;2022-09-09T23:37:24;94274.66;;;19.67;69.96
5917;BME280;2984;42.656;23.300;2022-09-09T23:39:54;94255.59;;;19.25;71.23
5917;BME280;2984;42.656;23.300;2022-09-09T23:42:23;94421.38;;;20.39;72.00
5917;BME280;2984;42.656;23.300;2022-09-09T23:44:52;94433.72;;;20.23;72.65
5917;BME280;2984;42.656;23.300;2022-09-09T23:47:22;94313.47;;;19.62;72.32
5917;BME280;2984;42.656;23.300;2022-09-09T23:49:50;94333.63;;;19.56;73.11
5917;BME280;2984;42.656;23.300;2022-09-09T23:52:19;94423.09;;;20.05;74.41
5917;BME280;2984;42.656;23.300;2022-09-09T23:54:53;94341.72;;;19.21;75.29
5917;BME280;2984;42.656;23.300;2022-09-09T23:57:22;94430.19;;;20.16;73.30
5917;BME280;2984;42.656;23.300;2022-09-09T23:59:51;94429.00;;;19.81;75.17
